sensor_id;sensor_type;location;lat;lon;timestamp;pressure;altitude;pressure_sealevel;temperature;humidity
38452;BME280;24231;52.514;13.438;2023-03-14T00:03:03;98794.33;;;11.44;67.45
38452;BME280;24231;52.514;13.438;2023-03-14T00:05:30;98793.72;;;11.55;69.84
38452;BME280;24231;52.514;13.438;2023-03-14T00:07:57;98792.58;;;11.69;69.51
38452;BME280;24231;52.514;13.438;2023-03-14T00:10:24;98786.48;;;11.47;70.56
38452;BME280;24231;52.514;13.438;2023-03-14T00:12:52;98784.11;;;11.96;68.76
38452;BME280;24231;52.514;13.438;2023-03-14T00:15:19;98786.91;;;11.77;69.29
38452;BME280;24231;52.514;13.438;2023-03-14T00:17:47;98775.31;;;11.23;71.73
38452;BME280;24231;52.514;13.438;2023-03-14T00:20:14;98754.33;;;11.15;72.58
38452;BME280;24231;52.514;13.438;2023-03-14T00:22:41;98749.94;;;11.33;71.64
38452;BME280;24231;52.514;13.438;2023-03-14T00:25:10;98745.32;;;11.50;71.20
38452;BME280;24231;52.514;13.438;2023-03-14T00:27:37;98744.54;;;11.20;71.44
38452;BME280;24231;52.514;13.438;2023-03-14T00:30:07;98734.16;;;11.03;72.94
38452;BME280;24231;52.514;13.438;2023-03-14T00:32:34;98730.49;;;11.60;71.33
38452;BME280;24231;52.514;13.438;2023-03-14T00:35:03;98724.88;;;11.32;71.49
38452;BME280;24231;52.514;13.438;2023-03-14T00:37:30;98723.42;;;11.31;71.95
38452;BME280;24231;52.514;13.438;2023-03-14T00:39:57;98715.04;;;10.67;74.68
38452;BME280;24231;52.514;13.438;2023-03-14T00:42:24;98704.04;;;10.86;74.27
38452;BME280;24231;52.514;13.438;2023-03-14T00:44:51;98706.01;;;11.08;73.46
38452;BME280;24231;52.514;13.438;2023-03-14T00:47:19;98720.20;;;11.05;72.92
38452;BME280;24231;52.514;13.438;2023-03-14T00:49:47;98720.15;;;11.06;73.78
38452;BME280;24231;52.514;13.438;2023-03-14T00:52:14;98715.50;;;11.53;72.32
38452;BME280;24231;52.514;13.438;2023-03-14T00:54:41;98705.29;;;10.97;74.08
38452;BME280;24231;52.514;13.438;2023-03-14T00:57:08;98702.29;;;10.80;75.05
38452;BME280;24231;52.514;13.438;2023-03-14T00:59:35;98697.16;;;10.93;74.52
38452;BME280;24231;52.514;13.438;2023-03-14T01:02:03;98691.49;;;10.83;74.36
38452;BME280;24231;52.514;13.438;2023-03-14T01:04:30;98680.07;;;10.47;76.46
38452;BME280;24231;52.514;13.438;2023-03-14T01:06:57;98672.45;;;11.43;73.67
38452;BME280;24231;52.514;13.438;2023-03-14T01:09:25;98670.92;;;10.77;75.94
38452;BME280;24231;52.514;13.438;2023-03-14T01:11:52;98660.47;;;10.79;75.83
38452;BME280;24231;52.514;13.438;2023-03-14T01:14:19;98671.24;;;10.99;75.28
38452;BME280;24231;52.514;13.438;2023-03-14T01:16:47;98670.16;;;10.40;77.83
38452;BME280;24231;52.514;13.438;2023-03-14T01:19:14;98686.76;;;10.45;77.09
38452;BME280;24231;52.514;13.438;2023-03-14T01:21:41;98699.31;;;10.34;77.88
38452;BME280;24231;52.514;13.438;2023-03-14T01:24:11;98710.65;;;10.52;76.62
38452;BME280;24231;52.514;13.438;2023-03-14T01:26:38;98733.88;;;10.87;75.45
38452;BME280;24231;52.514;13.438;2023-03-14T01:29:05;98747.97;;;11.18;73.97
38452;BME280;24231;52.514;13.438;2023-03-14T01:31:32;98737.58;;;11.19;74.56
38452;BME280;24231;52.514;13.438;2023-03-14T01:33:59;98737.93;;;11.47;73.38
38452;BME280;24231;52.514;13.438;2023-03-14T01:36:27;98749.08;;;11.45;72.57
38452;BME280;24231;52.514;13.438;2023-03-14T01:38:54;98746.91;;;10.65;75.85
38452;BME280;24231;52.514;13.438;2023-03-14T01:41:24;98745.63;;;10.84;75.65
38452;BME280;24231;52.514;13.438;2023-03-14T01:43:52;98746.03;;;10.93;74.54
38452;BME280;24231;52.514;13.438;2023-03-14T01:46:22;98753.15;;;10.39;77.45
38452;BME280;24231;52.514;13.438;2023-03-14T01:48:56;98759.28;;;10.94;75.09
38452;BME280;24231;52.514;13.438;2023-03-14T01:51:29;98755.57;;;10.79;75.55
38452;BME280;24231;52.514;13.438;2023-03-14T01:54:06;98764.37;;;10.88;74.97
38452;BME280;24231;52.514;13.438;2023-03-14T01:56:35;98767.27;;;10.66;77.10
38452;BME280;24231;52.514;13.438;2023-03-14T01:59:08;98760.70;;;10.67;76.03
38452;BME280;24231;52.514;13.438;2023-03-14T02:01:38;98750.92;;;10.77;75.69
38452;BME280;24231;52.514;13.438;2023-03-14T02:04:08;98745.10;;;11.01;73.54
38452;BME280;24231;52.514;13.438;2023-03-14T02:06:44;98734.90;;;11.31;73.44
38452;BME280;24231;52.514;13.438;2023-03-14T02:09:14;98730.18;;;10.78;74.51
38452;BME280;24231;52.514;13.438;2023-03-14T02:11:42;98729.60;;;10.71;75.66
38452;BME280;24231;52.514;13.438;2023-03-14T02:14:16;98728.52;;;10.79;75.30
38452;BME280;24231;52.514;13.438;2023-03-14T02:16:46;98721.97;;;11.29;73.76
38452;BME280;24231;52.514;13.438;2023-03-14T02:19:14;98715.30;;;10.79;75.13
38452;BME280;24231;52.514;13.438;2023-03-14T02:21:49;98719.15;;;11.11;74.12
38452;BME280;24231;52.514;13.438;2023-03-14T02:24:24;98718.75;;;10.41;77.06
38452;BME280;24231;52.514;13.438;2023-03-14T02:27:06;98717.73;;;10.80;75.82
38452;BME280;24231;52.514;13.438;2023-03-14T02:29:36;98713.35;;;11.96;70.83
38452;BME280;24231;52.514;13.438;2023-03-14T02:32:06;98712.93;;;10.90;74.22
38452;BME280;24231;52.514;13.438;2023-03-14T02:34:35;98710.00;;;10.86;74.42
38452;BME280;24231;52.514;13.438;2023-03-14T02:37:04;98710.41;;;10.76;74.90
38452;BME280;24231;52.514;13.438;2023-03-14T02:39:36;98712.87;;;10.53;75.86
38452;BME280;24231;52.514;13.438;2023-03-14T02:42:04;98706.12;;;10.68;75.31
38452;BME280;24231;52.514;13.438;2023-03-14T02:44:31;98700.61;;;10.83;74.60
38452;BME280;24231;52.514;13.438;2023-03-14T02:46:59;98701.64;;;10.86;73.83
38452;BME280;24231;52.514;13.438;2023-03-14T02:49:27;98696.01;;;10.76;74.61
38452;BME280;24231;52.514;13.438;2023-03-14T02:51:55;98694.57;;;10.66;74.93
38452;BME280;24231;52.514;13.438;2023-03-14T02:54:23;98686.65;;;10.78;74.42
38452;BME280;24231;52.514;13.438;2023-03-14T02:56:50;98678.90;;;10.77;75.02
38452;BME280;24231;52.514;13.438;2023-03-14T02:59:17;98672.55;;;11.04;73.52
38452;BME280;24231;52.514;13.438;2023-03-14T03:01:44;98667.21;;;10.39;75.60
38452;BME280;24231;52.514;13.438;2023-03-14T03:04:11;98656.25;;;10.50;75.29
38452;BME280;24231;52.514;13.438;2023-03-14T03:06:39;98658.29;;;10.79;74.02
38452;BME280;24231;52.514;13.438;2023-03-14T03:09:06;98652.31;;;10.70;74.05
38452;BME280;24231;52.514;13.438;2023-03-14T03:11:33;98641.69;;;11.49;70.95
38452;BME280;24231;52.514;13.438;2023-03-14T03:14:01;98621.42;;;11.67;69.95
38452;BME280;24231;52.514;13.438;2023-03-14T03:16:28;98613.44;;;11.63;70.66
38452;BME280;24231;52.514;13.438;2023-03-14T03:18:56;98614.25;;;10.80;73.54
38452;BME280;24231;52.514;13.438;2023-03-14T03:21:23;98614.01;;;10.34;75.10
38452;BME280;24231;52.514;13.438;2023-03-14T03:23:50;98612.34;;;10.64;73.99
38452;BME280;24231;52.514;13.438;2023-03-14T03:26:17;98613.79;;;10.68;74.22
38452;BME280;24231;52.514;13.438;2023-03-14T03:28:44;98619.13;;;11.40;70.50
38452;BME280;24231;52.514;13.438;2023-03-14T03:31:12;98634.13;;;10.80;73.72
38452;BME280;24231;52.514;13.438;2023-03-14T03:33:39;98644.58;;;10.41;74.62
38452;BME280;24231;52.514;13.438;2023-03-14T03:36:07;98634.88;;;11.44;70.25
38452;BME280;24231;52.514;13.438;2023-03-14T03:38:35;98637.82;;;10.70;72.73
38452;BME280;24231;52.514;13.438;2023-03-14T03:41:03;98642.23;;;10.74;73.27
38452;BME280;24231;52.514;13.438;2023-03-14T03:43:31;98647.64;;;11.07;72.07
38452;BME280;24231;52.514;13.438;2023-03-14T03:45:59;98646.61;;;10.85;72.78
38452;BME280;24231;52.514;13.438;2023-03-14T03:48:29;98640.56;;;10.66;72.66
38452;BME280;24231;52.514;13.438;2023-03-14T03:50:57;98634.66;;;10.83;72.85
38452;BME280;24231;52.514;13.438;2023-03-14T03:53:24;98628.68;;;11.04;71.33
38452;BME280;24231;52.514;13.438;2023-03-14T03:55:51;98625.95;;;10.73;73.66
38452;BME280;24231;52.514;13.438;2023-03-14T03:58:18;98624.96;;;11.34;69.80
38452;BME280;24231;52.514;13.438;2023-03-14T04:00:45;98626.33;;;10.27;74.13
38452;BME280;24231;52.514;13.438;2023-03-14T04:03:13;98628.94;;;10.85;71.97
38452;BME280;24231;52.514;13.438;2023-03-14T04:05:40;98627.86;;;10.77;72.10
38452;BME280;24231;52.514;13.438;2023-03-14T04:08:07;98631.22;;;11.46;70.26
38452;BME280;24231;52.514;13.438;2023-03-14T04:10:35;98631.15;;;10.30;73.77
38452;BME280;24231;52.514;13.438;2023-03-14T04:13:03;98609.05;;;10.32;73.51
38452;BME280;24231;52.514;13.438;2023-03-14T04:15:30;98622.70;;;10.74;72.86
38452;BME280;24231;52.514;13.438;2023-03-14T04:17:58;98630.16;;;10.47;73.91
38452;BME280;24231;52.514;13.438;2023-03-14T04:20:25;98633.64;;;11.14;70.43
38452;BME280;24231;52.514;13.438;2023-03-14T04:22:52;98623.66;;;10.73;71.91
38452;BME280;24231;52.514;13.438;2023-03-14T04:25:20;98618.83;;;10.85;71.12
38452;BME280;24231;52.514;13.438;2023-03-14T04:27:47;98619.37;;;11.05;70.57
38452;BME280;24231;52.514;13.438;2023-03-14T04:30:15;98621.82;;;10.87;70.82
38452;BME280;24231;52.514;13.438;2023-03-14T04:32:42;98610.69;;;10.76;71.20
38452;BME280;24231;52.514;13.438;2023-03-14T04:35:09;98610.87;;;10.97;69.98
38452;BME280;24231;52.514;13.438;2023-03-14T04:37:36;98609.80;;;10.46;71.85
38452;BME280;24231;52.514;13.438;2023-03-14T04:40:04;98599.89;;;11.13;69.50
38452;BME280;24231;52.514;13.438;2023-03-14T04:42:32;98590.18;;;11.70;66.58
38452;BME280;24231;52.514;13.438;2023-03-14T04:44:59;98590.99;;;11.02;69.05
38452;BME280;24231;52.514;13.438;2023-03-14T04:47:26;98579.54;;;12.00;66.13
38452;BME280;24231;52.514;13.438;2023-03-14T04:49:54;98577.20;;;11.34;67.81
38452;BME280;24231;52.514;13.438;2023-03-14T04:52:21;98575.71;;;11.04;68.35
38452;BME280;24231;52.514;13.438;2023-03-14T04:54:48;98571.96;;;10.75;70.16
38452;BME280;24231;52.514;13.438;2023-03-14T04:57:15;98562.26;;;11.64;67.16
38452;BME280;24231;52.514;13.438;2023-03-14T04:59:43;98554.76;;;11.50;66.73
38452;BME280;24231;52.514;13.438;2023-03-14T05:02:11;98558.35;;;11.50;66.66
38452;BME280;24231;52.514;13.438;2023-03-14T05:04:39;98572.34;;;10.78;70.00
38452;BME280;24231;52.514;13.438;2023-03-14T05:07:06;98575.81;;;11.00;68.44
38452;BME280;24231;52.514;13.438;2023-03-14T05:09:33;98581.70;;;10.91;68.80
38452;BME280;24231;52.514;13.438;2023-03-14T05:12:01;98574.99;;;11.30;67.23
38452;BME280;24231;52.514;13.438;2023-03-14T05:14:28;98574.56;;;11.34;67.11
38452;BME280;24231;52.514;13.438;2023-03-14T05:16:56;98576.43;;;10.48;70.34
38452;BME280;24231;52.514;13.438;2023-03-14T05:19:23;98571.53;;;10.36;71.03
38452;BME280;24231;52.514;13.438;2023-03-14T05:21:50;98550.52;;;11.83;65.45
38452;BME280;24231;52.514;13.438;2023-03-14T05:24:17;98547.92;;;11.45;65.99
38452;BME280;24231;52.514;13.438;2023-03-14T05:26:45;98545.45;;;10.88;68.00
38452;BME280;24231;52.514;13.438;2023-03-14T05:29:12;98550.49;;;10.93;68.12
38452;BME280;24231;52.514;13.438;2023-03-14T05:31:39;98548.86;;;11.26;66.14
38452;BME280;24231;52.514;13.438;2023-03-14T05:34:06;98543.98;;;11.75;64.64
38452;BME280;24231;52.514;13.438;2023-03-14T05:36:33;98543.28;;;10.86;67.57
38452;BME280;24231;52.514;13.438;2023-03-14T05:39:01;98544.63;;;11.39;65.04
38452;BME280;24231;52.514;13.438;2023-03-14T05:41:29;98548.74;;;11.44;65.16
38452;BME280;24231;52.514;13.438;2023-03-14T05:43:56;98539.82;;;11.19;66.17
38452;BME280;24231;52.514;13.438;2023-03-14T05:46:23;98554.62;;;10.74;67.44
38452;BME280;24231;52.514;13.438;2023-03-14T05:48:50;98555.64;;;10.96;65.58
38452;BME280;24231;52.514;13.438;2023-03-14T05:51:18;98557.27;;;11.00;65.89
38452;BME280;24231;52.514;13.438;2023-03-14T05:53:50;98564.56;;;10.54;67.99
38452;BME280;24231;52.514;13.438;2023-03-14T05:56:17;98557.69;;;10.95;66.31
38452;BME280;24231;52.514;13.438;2023-03-14T05:58:44;98554.91;;;10.41;68.25
38452;BME280;24231;52.514;13.438;2023-03-14T06:01:12;98546.42;;;11.34;64.39
38452;BME280;24231;52.514;13.438;2023-03-14T06:03:39;98545.87;;;11.20;65.07
38452;BME280;24231;52.514;13.438;2023-03-14T06:06:07;98550.13;;;11.04;65.02
38452;BME280;24231;52.514;13.438;2023-03-14T06:08:34;98540.66;;;11.18;64.86
38452;BME280;24231;52.514;13.438;2023-03-14T06:11:03;98542.50;;;11.42;63.60
38452;BME280;24231;52.514;13.438;2023-03-14T06:13:30;98545.78;;;11.46;63.54
38452;BME280;24231;52.514;13.438;2023-03-14T06:15:57;98550.42;;;10.85;65.59
38452;BME280;24231;52.514;13.438;2023-03-14T06:18:24;98543.27;;;11.11;64.54
38452;BME280;24231;52.514;13.438;2023-03-14T06:20:53;98543.74;;;11.28;63.49
38452;BME280;24231;52.514;13.438;2023-03-14T06:23:21;98540.40;;;11.12;63.55
38452;BME280;24231;52.514;13.438;2023-03-14T06:25:49;98548.85;;;10.93;64.08
38452;BME280;24231;52.514;13.438;2023-03-14T06:28:16;98557.99;;;10.60;65.69
38452;BME280;24231;52.514;13.438;2023-03-14T06:30:43;98551.02;;;10.89;64.58
38452;BME280;24231;52.514;13.438;2023-03-14T06:33:10;98550.03;;;10.62;65.88
38452;BME280;24231;52.514;13.438;2023-03-14T06:35:42;98553.35;;;11.11;63.95
38452;BME280;24231;52.514;13.438;2023-03-14T06:38:10;98553.60;;;11.77;61.68
38452;BME280;24231;52.514;13.438;2023-03-14T06:40:38;98546.86;;;10.71;64.69
38452;BME280;24231;52.514;13.438;2023-03-14T06:43:05;98551.04;;;10.20;65.53
38452;BME280;24231;52.514;13.438;2023-03-14T06:45:33;98558.98;;;11.80;61.19
38452;BME280;24231;52.514;13.438;2023-03-14T06:48:00;98565.88;;;10.69;64.70
38452;BME280;24231;52.514;13.438;2023-03-14T06:50:28;98567.33;;;10.96;64.01
38452;BME280;24231;52.514;13.438;2023-03-14T06:52:55;98569.60;;;10.69;65.09
38452;BME280;24231;52.514;13.438;2023-03-14T06:55:22;98584.20;;;11.08;63.79
38452;BME280;24231;52.514;13.438;2023-03-14T06:57:49;98576.41;;;10.62;65.19
38452;BME280;24231;52.514;13.438;2023-03-14T07:00:17;98586.73;;;10.92;63.84
38452;BME280;24231;52.514;13.438;2023-03-14T07:02:45;98586.85;;;11.31;63.21
38452;BME280;24231;52.514;13.438;2023-03-14T07:05:12;98590.83;;;11.10;62.91
38452;BME280;24231;52.514;13.438;2023-03-14T07:07:39;98593.25;;;10.88;63.93
38452;BME280;24231;52.514;13.438;2023-03-14T07:10:06;98584.07;;;11.54;62.24
38452;BME280;24231;52.514;13.438;2023-03-14T07:12:34;98601.83;;;11.27;62.45
38452;BME280;24231;52.514;13.438;2023-03-14T07:15:01;98593.62;;;11.61;61.37
38452;BME280;24231;52.514;13.438;2023-03-14T07:17:28;98595.90;;;12.03;59.67
38452;BME280;24231;52.514;13.438;2023-03-14T07:19:56;98595.27;;;12.17;59.06
38452;BME280;24231;52.514;13.438;2023-03-14T07:22:23;98599.77;;;11.77;60.26
38452;BME280;24231;52.514;13.438;2023-03-14T07:24:51;98609.94;;;11.76;60.12
38452;BME280;24231;52.514;13.438;2023-03-14T07:27:19;98608.23;;;11.73;60.25
38452;BME280;24231;52.514;13.438;2023-03-14T07:29:46;98607.45;;;11.96;59.54
38452;BME280;24231;52.514;13.438;2023-03-14T07:32:14;98604.62;;;12.39;57.73
38452;BME280;24231;52.514;13.438;2023-03-14T07:34:41;98610.61;;;12.27;58.02
38452;BME280;24231;52.514;13.438;2023-03-14T07:37:08;98610.90;;;13.11;55.48
38452;BME280;24231;52.514;13.438;2023-03-14T07:39:35;98611.29;;;12.58;57.07
38452;BME280;24231;52.514;13.438;2023-03-14T07:42:02;98615.75;;;12.25;58.12
38452;BME280;24231;52.514;13.438;2023-03-14T07:44:29;98613.02;;;12.40;57.44
38452;BME280;24231;52.514;13.438;2023-03-14T07:46:56;98615.65;;;12.93;55.90
38452;BME280;24231;52.514;13.438;2023-03-14T07:49:23;98615.14;;;12.96;55.57
38452;BME280;24231;52.514;13.438;2023-03-14T07:51:50;98617.30;;;13.07;54.94
38452;BME280;24231;52.514;13.438;2023-03-14T07:54:18;98615.98;;;12.65;56.44
38452;BME280;24231;52.514;13.438;2023-03-14T07:56:44;98610.75;;;12.65;56.24
38452;BME280;24231;52.514;13.438;2023-03-14T07:59:11;98608.90;;;12.69;56.17
38452;BME280;24231;52.514;13.438;2023-03-14T08:01:39;98604.12;;;14.07;52.04
38452;BME280;24231;52.514;13.438;2023-03-14T08:04:06;98608.68;;;12.80;55.63
38452;BME280;24231;52.514;13.438;2023-03-14T08:06:33;98595.35;;;13.88;52.83
38452;BME280;24231;52.514;13.438;2023-03-14T08:09:02;98599.66;;;13.24;54.08
38452;BME280;24231;52.514;13.438;2023-03-14T08:11:29;98593.69;;;12.71;55.76
38452;BME280;24231;52.514;13.438;2023-03-14T08:13:57;98590.23;;;13.11;54.63
38452;BME280;24231;52.514;13.438;2023-03-14T08:16:24;98586.70;;;12.96;55.60
38452;BME280;24231;52.514;13.438;2023-03-14T08:18:51;98585.76;;;12.77;56.35
38452;BME280;24231;52.514;13.438;2023-03-14T08:21:18;98587.63;;;13.97;53.15
38452;BME280;24231;52.514;13.438;2023-03-14T08:23:45;98585.97;;;12.62;56.34
38452;BME280;24231;52.514;13.438;2023-03-14T08:26:12;98587.69;;;12.99;55.38
38452;BME280;24231;52.514;13.438;2023-03-14T08:28:39;98594.14;;;12.89;55.92
38452;BME280;24231;52.514;13.438;2023-03-14T08:31:07;98595.95;;;13.21;54.69
38452;BME280;24231;52.514;13.438;2023-03-14T08:33:34;98597.21;;;12.40;57.15
38452;BME280;24231;52.514;13.438;2023-03-14T08:36:01;98593.23;;;12.45;56.87
38452;BME280;24231;52.514;13.438;2023-03-14T08:38:28;98594.93;;;12.85;55.58
38452;BME280;24231;52.514;13.438;2023-03-14T08:40:56;98599.80;;;12.88;55.85
38452;BME280;24231;52.514;13.438;2023-03-14T08:43:23;98612.60;;;12.97;55.68
38452;BME280;24231;52.514;13.438;2023-03-14T08:45:51;98606.68;;;13.53;53.59
38452;BME280;24231;52.514;13.438;2023-03-14T08:48:18;98610.49;;;12.63;56.16
38452;BME280;24231;52.514;13.438;2023-03-14T08:50:45;98612.25;;;13.00;55.22
38452;BME280;24231;52.514;13.438;2023-03-14T08:53:12;98614.17;;;13.54;53.95
38452;BME280;24231;52.514;13.438;2023-03-14T08:55:39;98614.63;;;12.30;57.40
38452;BME280;24231;52.514;13.438;2023-03-14T08:58:06;98614.67;;;13.29;54.32
38452;BME280;24231;52.514;13.438;2023-03-14T09:00:33;98615.35;;;12.73;56.21
38452;BME280;24231;52.514;13.438;2023-03-14T09:03:02;98613.37;;;12.46;56.88
38452;BME280;24231;52.514;13.438;2023-03-14T09:05:33;98612.99;;;12.85;55.72
38452;BME280;24231;52.514;13.438;2023-03-14T09:08:01;98619.76;;;13.16;54.62
38452;BME280;24231;52.514;13.438;2023-03-14T09:10:28;98613.87;;;12.07;58.04
38452;BME280;24231;52.514;13.438;2023-03-14T09:12:55;98609.31;;;11.93;58.73
38452;BME280;24231;52.514;13.438;2023-03-14T09:15:22;98607.13;;;12.44;57.45
38452;BME280;24231;52.514;13.438;2023-03-14T09:17:49;98604.87;;;12.71;56.00
38452;BME280;24231;52.514;13.438;2023-03-14T09:20:17;98591.19;;;13.74;53.19
38452;BME280;24231;52.514;13.438;2023-03-14T09:22:44;98581.88;;;13.80;52.99
38452;BME280;24231;52.514;13.438;2023-03-14T09:25:11;98582.13;;;14.04;52.66
38452;BME280;24231;52.514;13.438;2023-03-14T09:27:38;98584.20;;;14.37;51.71
38452;BME280;24231;52.514;13.438;2023-03-14T09:30:05;98577.95;;;14.48;50.64
38452;BME280;24231;52.514;13.438;2023-03-14T09:32:32;98579.77;;;15.40;48.25
38452;BME280;24231;52.514;13.438;2023-03-14T09:35:00;98574.58;;;16.24;46.38
38452;BME280;24231;52.514;13.438;2023-03-14T09:37:27;98572.59;;;15.84;46.58
38452;BME280;24231;52.514;13.438;2023-03-14T09:39:54;98568.49;;;15.58;46.75
38452;BME280;24231;52.514;13.438;2023-03-14T09:42:24;98573.08;;;16.84;44.29
38452;BME280;24231;52.514;13.438;2023-03-14T09:44:55;98571.52;;;16.73;43.99
38452;BME280;24231;52.514;13.438;2023-03-14T09:47:24;98575.47;;;16.63;43.95
38452;BME280;24231;52.514;13.438;2023-03-14T09:49:52;98577.07;;;16.53;43.85
38452;BME280;24231;52.514;13.438;2023-03-14T09:52:22;98572.69;;;16.12;44.35
38452;BME280;24231;52.514;13.438;2023-03-14T09:54:51;98583.54;;;15.73;45.19
38452;BME280;24231;52.514;13.438;2023-03-14T09:57:24;98582.74;;;15.20;46.38
38452;BME280;24231;52.514;13.438;2023-03-14T09:59:54;98576.78;;;14.42;48.49
38452;BME280;24231;52.514;13.438;2023-03-14T10:02:25;98585.42;;;15.01;46.61
38452;BME280;24231;52.514;13.438;2023-03-14T10:04:54;98587.99;;;14.91;47.19
38452;BME280;24231;52.514;13.438;2023-03-14T10:07:27;98591.20;;;14.77;47.42
38452;BME280;24231;52.514;13.438;2023-03-14T10:09:58;98590.95;;;13.38;50.54
38452;BME280;24231;52.514;13.438;2023-03-14T10:12:31;98594.02;;;14.26;48.50
38452;BME280;24231;52.514;13.438;2023-03-14T10:15:05;98594.90;;;13.56;50.14
38452;BME280;24231;52.514;13.438;2023-03-14T10:17:39;98596.76;;;13.51;50.50
38452;BME280;24231;52.514;13.438;2023-03-14T10:20:15;98588.81;;;13.78;49.83
38452;BME280;24231;52.514;13.438;2023-03-14T10:22:52;98593.27;;;13.49;50.00
38452;BME280;24231;52.514;13.438;2023-03-14T10:25:27;98595.65;;;13.59;49.87
38452;BME280;24231;52.514;13.438;2023-03-14T10:27:54;98597.68;;;13.14;50.74
38452;BME280;24231;52.514;13.438;2023-03-14T10:30:33;98594.31;;;13.77;49.06
38452;BME280;24231;52.514;13.438;2023-03-14T10:33:09;98599.73;;;14.38;47.55
38452;BME280;24231;52.514;13.438;2023-03-14T10:35:36;98596.26;;;14.23;47.88
38452;BME280;24231;52.514;13.438;2023-03-14T10:38:04;98595.49;;;13.39;49.88
38452;BME280;24231;52.514;13.438;2023-03-14T10:40:33;98594.16;;;13.50;49.50
38452;BME280;24231;52.514;13.438;2023-03-14T10:43:05;98592.49;;;13.00;50.78
38452;BME280;24231;52.514;13.438;2023-03-14T10:45:36;98599.45;;;12.89;51.90
38452;BME280;24231;52.514;13.438;2023-03-14T10:48:18;98592.62;;;12.68;51.64
38452;BME280;24231;52.514;13.438;2023-03-14T10:50:54;98601.10;;;13.28;49.86
38452;BME280;24231;52.514;13.438;2023-03-14T10:53:23;98594.44;;;13.41;50.96
38452;BME280;24231;52.514;13.438;2023-03-14T10:55:51;98591.83;;;13.45;49.48
38452;BME280;24231;52.514;13.438;2023-03-14T10:58:23;98597.49;;;14.05;47.57
38452;BME280;24231;52.514;13.438;2023-03-14T11:01:00;98598.89;;;14.37;46.94
38452;BME280;24231;52.514;13.438;2023-03-14T11:03:32;98595.26;;;14.15;47.87
38452;BME280;24231;52.514;13.438;2023-03-14T11:06:06;98599.51;;;14.22;47.60
38452;BME280;24231;52.514;13.438;2023-03-14T11:08:44;98602.31;;;13.24;50.04
38452;BME280;24231;52.514;13.438;2023-03-14T11:11:17;98592.83;;;14.11;48.14
38452;BME280;24231;52.514;13.438;2023-03-14T11:13:56;98588.39;;;14.03;49.13
38452;BME280;24231;52.514;13.438;2023-03-14T11:16:34;98591.74;;;14.13;47.70
38452;BME280;24231;52.514;13.438;2023-03-14T11:19:22;98591.50;;;13.54;49.42
38452;BME280;24231;52.514;13.438;2023-03-14T11:21:55;98589.57;;;12.82;51.06
38452;BME280;24231;52.514;13.438;2023-03-14T11:24:33;98591.72;;;13.60;49.50
38452;BME280;24231;52.514;13.438;2023-03-14T11:27:10;98593.96;;;12.64;51.69
38452;BME280;24231;52.514;13.438;2023-03-14T11:29:49;98589.92;;;12.57;52.30
38452;BME280;24231;52.514;13.438;2023-03-14T11:32:28;98585.71;;;12.95;51.84
38452;BME280;24231;52.514;13.438;2023-03-14T11:35:43;98586.38;;;14.21;48.37
38452;BME280;24231;52.514;13.438;2023-03-14T11:38:18;98580.06;;;13.48;50.45
38452;BME280;24231;52.514;13.438;2023-03-14T11:40:47;98597.23;;;12.54;53.47
38452;BME280;24231;52.514;13.438;2023-03-14T11:43:20;98590.75;;;12.68;52.99
38452;BME280;24231;52.514;13.438;2023-03-14T11:45:48;98586.95;;;12.82;52.85
38452;BME280;24231;52.514;13.438;2023-03-14T11:48:25;98594.28;;;12.89;53.13
38452;BME280;24231;52.514;13.438;2023-03-14T11:51:39;98595.74;;;12.85;54.65
38452;BME280;24231;52.514;13.438;2023-03-14T11:54:14;98591.65;;;13.29;52.72
38452;BME280;24231;52.514;13.438;2023-03-14T11:56:47;98590.92;;;12.81;54.60
38452;BME280;24231;52.514;13.438;2023-03-14T11:59:33;98592.13;;;13.59;52.80
38452;BME280;24231;52.514;13.438;2023-03-14T12:02:11;98593.92;;;13.05;54.76
38452;BME280;24231;52.514;13.438;2023-03-14T12:04:47;98591.81;;;13.77;53.08
38452;BME280;24231;52.514;13.438;2023-03-14T12:07:20;98587.58;;;13.03;54.68
38452;BME280;24231;52.514;13.438;2023-03-14T12:09:49;98583.13;;;13.13;54.93
38452;BME280;24231;52.514;13.438;2023-03-14T12:12:19;98578.06;;;13.07;54.57
38452;BME280;24231;52.514;13.438;2023-03-14T12:14:54;98578.84;;;14.22;52.18
38452;BME280;24231;52.514;13.438;2023-03-14T12:17:25;98583.57;;;13.05;55.46
38452;BME280;24231;52.514;13.438;2023-03-14T12:20:02;98578.18;;;13.25;54.85
38452;BME280;24231;52.514;13.438;2023-03-14T12:22:33;98573.44;;;12.88;56.79
38452;BME280;24231;52.514;13.438;2023-03-14T12:25:05;98573.24;;;13.57;54.16
38452;BME280;24231;52.514;13.438;2023-03-14T12:27:45;98566.43;;;13.19;55.77
38452;BME280;24231;52.514;13.438;2023-03-14T12:30:26;98568.20;;;12.67;57.68
38452;BME280;24231;52.514;13.438;2023-03-14T12:33:33;98569.32;;;12.94;56.73
38452;BME280;24231;52.514;13.438;2023-03-14T12:36:04;98557.50;;;13.07;56.29
38452;BME280;24231;52.514;13.438;2023-03-14T12:38:47;98558.22;;;13.09;55.66
38452;BME280;24231;52.514;13.438;2023-03-14T12:41:20;98558.38;;;14.40;52.78
38452;BME280;24231;52.514;13.438;2023-03-14T12:43:48;98558.68;;;13.09;55.88
38452;BME280;24231;52.514;13.438;2023-03-14T12:46:21;98551.82;;;12.99;57.07
38452;BME280;24231;52.514;13.438;2023-03-14T12:48:49;98556.58;;;13.82;54.70
38452;BME280;24231;52.514;13.438;2023-03-14T12:51:19;98556.58;;;13.39;56.46
38452;BME280;24231;52.514;13.438;2023-03-14T12:53:58;98552.30;;;13.56;55.80
38452;BME280;24231;52.514;13.438;2023-03-14T12:57:40;98549.93;;;13.09;57.69
38452;BME280;24231;52.514;13.438;2023-03-14T13:00:18;98544.25;;;15.67;51.48
38452;BME280;24231;52.514;13.438;2023-03-14T13:02:46;98545.47;;;15.11;51.09
38452;BME280;24231;52.514;13.438;2023-03-14T13:05:17;98548.43;;;15.34;50.38